createdAt,value
2023-02-15T00:02:03.434Z,29.02
2023-02-15T00:04:47.190Z,27.65
2023-02-15T00:07:19.084Z,27.63
2023-02-15T00:09:49.591Z,26.60
2023-02-15T00:12:17.102Z,27.40
2023-02-15T00:14:44.286Z,26.58
2023-02-15T00:17:11.261Z,27.02
2023-02-15T00:19:38.260Z,27.00
2023-02-15T00:22:05.097Z,26.25
2023-02-15T00:24:32.021Z,25.50
2023-02-15T00:26:59.377Z,25.67
2023-02-15T00:29:29.122Z,25.60
2023-02-15T00:34:25.595Z,23.35
2023-02-15T00:39:20.016Z,25.40
2023-02-15T00:41:47.755Z,25.38
2023-02-15T00:44:15.476Z,23.88
2023-02-15T00:46:42.756Z,24.40
2023-02-15T00:49:09.788Z,24.05
2023-02-15T00:51:36.726Z,23.15
2023-02-15T00:54:03.638Z,23.85
2023-02-15T00:56:30.458Z,22.98
2023-02-15T00:58:57.316Z,22.90
2023-02-15T01:01:24.569Z,22.63
2023-02-15T01:03:51.528Z,23.05
2023-02-15T01:06:18.458Z,23.00
2023-02-15T01:08:46.261Z,22.73
2023-02-15T01:11:16.303Z,21.90
2023-02-15T01:13:43.359Z,20.85
2023-02-15T01:16:10.265Z,21.67
2023-02-15T01:18:37.298Z,21.58
2023-02-15T01:21:15.285Z,21.60
2023-02-15T01:23:43.059Z,22.63
2023-02-15T01:26:10.623Z,22.55
2023-02-15T01:28:37.995Z,20.73
2023-02-15T01:31:12.976Z,21.75
2023-02-15T01:33:40.482Z,20.90
2023-02-15T01:36:08.751Z,19.35
2023-02-15T01:38:36.259Z,21.30
2023-02-15T01:41:23.172Z,20.17
2023-02-15T01:43:58.701Z,20.20
2023-02-15T01:46:30.073Z,20.90
2023-02-15T01:49:04.971Z,20.67
2023-02-15T01:51:34.346Z,20.38
2023-02-15T01:54:12.710Z,20.45
2023-02-15T01:56:41.189Z,19.63
2023-02-15T01:59:13.031Z,19.95
2023-02-15T02:01:40.234Z,19.40
2023-02-15T02:04:17.645Z,19.60
2023-02-15T02:06:47.054Z,19.00
2023-02-15T02:11:42.077Z,18.80
2023-02-15T02:14:09.302Z,18.83
2023-02-15T02:16:36.108Z,18.42
2023-02-15T02:19:14.894Z,18.45
2023-02-15T02:22:08.202Z,18.00
2023-02-15T02:24:59.260Z,18.08
2023-02-15T02:27:34.234Z,17.52
2023-02-15T02:30:42.931Z,17.85
2023-02-15T02:33:41.908Z,18.17
2023-02-15T02:36:49.953Z,17.25
2023-02-15T02:39:37.857Z,17.20
2023-02-15T02:42:19.416Z,17.80
2023-02-15T02:44:52.961Z,18.08
2023-02-15T02:47:33.880Z,16.67
2023-02-15T02:50:04.410Z,17.10
2023-02-15T02:52:37.209Z,17.60
2023-02-15T02:55:11.682Z,16.15
2023-02-15T02:57:41.522Z,16.17
2023-02-15T03:00:10.015Z,16.83
2023-02-15T03:02:41.038Z,16.65
2023-02-15T03:05:12.471Z,16.17
2023-02-15T03:07:40.978Z,17.30
2023-02-15T03:10:08.713Z,16.83
2023-02-15T03:12:38.282Z,16.25
2023-02-15T03:15:19.635Z,14.73
2023-02-15T03:17:57.717Z,16.38
2023-02-15T03:20:29.235Z,15.82
2023-02-15T03:22:59.934Z,15.95
2023-02-15T03:25:31.864Z,15.88
2023-02-15T03:28:04.691Z,15.68
2023-02-15T03:30:32.820Z,15.90
2023-02-15T03:33:00.947Z,15.20
2023-02-15T03:35:38.551Z,15.40
2023-02-15T03:38:08.445Z,16.02
2023-02-15T03:43:55.963Z,14.85
2023-02-15T03:46:43.433Z,15.43
2023-02-15T03:49:17.958Z,15.60
2023-02-15T03:51:47.507Z,15.30
2023-02-15T03:54:38.010Z,15.27
2023-02-15T03:57:24.174Z,14.82
2023-02-15T04:00:09.330Z,14.80
2023-02-15T04:02:41.563Z,14.93
2023-02-15T04:05:08.414Z,14.73
2023-02-15T04:07:35.264Z,14.15
2023-02-15T04:10:21.032Z,13.98
2023-02-15T04:12:47.938Z,14.57
2023-02-15T04:15:33.440Z,15.48
2023-02-15T04:18:00.601Z,14.30
2023-02-15T04:20:45.897Z,14.93
2023-02-15T04:23:31.343Z,14.95
2023-02-15T04:25:58.248Z,14.57
2023-02-15T04:28:25.084Z,14.35
2023-02-15T04:30:51.937Z,14.43
2023-02-15T04:33:18.847Z,13.88
2023-02-15T04:35:46.088Z,14.05
2023-02-15T04:38:12.931Z,13.90
2023-02-15T04:40:39.783Z,14.25
2023-02-15T04:43:06.663Z,14.40
2023-02-15T04:45:33.560Z,13.98
2023-02-15T04:48:00.440Z,13.32
2023-02-15T04:50:27.329Z,14.20
2023-02-15T04:52:54.338Z,13.75
2023-02-15T04:55:21.280Z,13.40
2023-02-15T04:57:48.241Z,13.50
2023-02-15T05:00:15.411Z,13.20
2023-02-15T05:02:42.302Z,13.20
2023-02-15T05:05:10.482Z,13.32
2023-02-15T05:07:37.406Z,13.27
2023-02-15T05:10:04.564Z,14.35
2023-02-15T05:12:31.667Z,13.30
2023-02-15T05:14:58.512Z,13.32
2023-02-15T05:17:25.522Z,13.30
2023-02-15T05:19:52.378Z,13.45
2023-02-15T05:22:19.284Z,13.38
2023-02-15T05:25:04.482Z,12.75
2023-02-15T05:27:49.943Z,12.43
2023-02-15T05:30:16.916Z,12.57
2023-02-15T05:32:43.995Z,12.20
2023-02-15T05:35:14.730Z,11.95
2023-02-15T05:37:41.628Z,12.30
2023-02-15T05:40:09.294Z,11.80
2023-02-15T05:42:36.197Z,11.73
2023-02-15T05:45:04.709Z,11.52
2023-02-15T05:47:31.618Z,11.40
2023-02-15T05:49:58.439Z,11.05
2023-02-15T05:52:25.331Z,11.85
2023-02-15T05:54:52.210Z,11.63
2023-02-15T05:57:19.037Z,11.95
2023-02-15T05:59:45.927Z,10.68
2023-02-15T06:02:13.964Z,10.98
2023-02-15T06:04:40.886Z,10.88
2023-02-15T06:07:07.750Z,10.43
2023-02-15T06:09:34.634Z,10.55
2023-02-15T06:12:01.525Z,11.25
2023-02-15T06:14:28.408Z,11.15
2023-02-15T06:16:55.294Z,10.65
2023-02-15T06:19:23.577Z,10.65
2023-02-15T06:21:50.843Z,11.50
2023-02-15T06:24:17.715Z,10.77
2023-02-15T06:26:44.565Z,10.98
2023-02-15T06:29:11.410Z,11.38
2023-02-15T06:31:38.319Z,11.77
2023-02-15T06:34:05.268Z,45.05
2023-02-15T06:36:32.691Z,51.22
2023-02-15T06:38:59.537Z,42.05
2023-02-15T06:41:26.490Z,34.15
2023-02-15T06:43:53.406Z,33.15
2023-02-15T06:46:20.313Z,32.42
2023-02-15T06:48:47.370Z,29.17
2023-02-15T06:51:14.308Z,27.38
2023-02-15T06:53:44.037Z,25.27
2023-02-15T06:58:42.038Z,22.95
2023-02-15T07:01:10.208Z,20.95
2023-02-15T07:03:37.229Z,50.28
2023-02-15T07:06:09.001Z,104.30
2023-02-15T07:08:36.790Z,80.38
2023-02-15T07:11:21.974Z,79.28
2023-02-15T07:13:48.870Z,119.43
2023-02-15T07:16:15.902Z,122.53
2023-02-15T07:18:42.762Z,106.15
2023-02-15T07:21:09.637Z,95.57
2023-02-15T07:23:37.414Z,88.80
2023-02-15T07:26:05.214Z,79.07
2023-02-15T07:28:33.093Z,74.32
2023-02-15T07:31:01.926Z,69.15
2023-02-15T07:33:29.856Z,67.50
2023-02-15T07:35:59.302Z,58.97
2023-02-15T07:38:27.257Z,55.83
2023-02-15T07:40:59.888Z,53.08
2023-02-15T07:43:26.871Z,51.03
2023-02-15T07:45:54.988Z,48.97
2023-02-15T07:48:24.623Z,47.65
2023-02-15T07:50:51.759Z,44.47
2023-02-15T07:53:18.606Z,41.05
2023-02-15T07:55:45.451Z,42.13
2023-02-15T07:58:12.484Z,41.10
2023-02-15T08:00:57.353Z,38.65
2023-02-15T08:03:30.282Z,38.63
2023-02-15T08:05:59.926Z,34.70
2023-02-15T08:11:25.806Z,34.63
2023-02-15T08:13:56.444Z,33.53
2023-02-15T08:16:39.709Z,32.00
2023-02-15T08:19:16.590Z,31.67
2023-02-15T08:21:46.158Z,30.90
2023-02-15T08:24:15.185Z,30.50
2023-02-15T08:26:42.592Z,29.58
2023-02-15T08:29:09.955Z,30.35
2023-02-15T08:31:38.463Z,28.38
2023-02-15T08:34:06.430Z,27.15
2023-02-15T08:36:33.329Z,28.83
2023-02-15T08:39:01.540Z,27.02
2023-02-15T08:41:30.801Z,26.60
2023-02-15T08:44:00.396Z,25.88
2023-02-15T08:46:32.707Z,26.05
2023-02-15T08:48:59.890Z,24.65
2023-02-15T08:51:28.816Z,25.75
2023-02-15T08:54:00.117Z,24.55
2023-02-15T08:56:30.145Z,23.95
2023-02-15T08:58:57.750Z,23.25
2023-02-15T09:01:30.022Z,22.88
2023-02-15T09:03:59.126Z,23.25
2023-02-15T09:06:26.493Z,22.75
2023-02-15T09:08:54.294Z,22.63
2023-02-15T09:11:24.568Z,22.60
2023-02-15T09:14:00.489Z,21.85
2023-02-15T09:16:29.777Z,22.38
2023-02-15T09:18:58.509Z,22.10
2023-02-15T09:21:26.814Z,19.98
2023-02-15T09:23:58.659Z,20.33
2023-02-15T09:26:25.743Z,20.70
2023-02-15T09:28:56.368Z,19.48
2023-02-15T09:31:27.324Z,19.73
2023-02-15T09:33:54.842Z,19.95
2023-02-15T09:36:23.318Z,19.70
2023-02-15T09:39:08.509Z,18.83
2023-02-15T09:41:53.630Z,19.23
2023-02-15T09:44:45.445Z,18.75
2023-02-15T09:47:27.104Z,18.38
2023-02-15T09:50:18.671Z,17.70
2023-02-15T09:53:06.293Z,18.60
2023-02-15T09:55:42.037Z,18.08
2023-02-15T09:58:40.075Z,17.70
2023-02-15T10:01:20.436Z,18.10
2023-02-15T10:04:07.414Z,17.67
2023-02-15T10:06:45.181Z,16.25
2023-02-15T10:09:39.486Z,17.80
2023-02-15T10:12:27.668Z,16.98
2023-02-15T10:15:13.745Z,15.68
2023-02-15T10:18:14.406Z,16.63
2023-02-15T10:21:03.676Z,16.58
2023-02-15T10:23:58.557Z,15.68
2023-02-15T10:26:31.543Z,15.60
2023-02-15T10:29:18.360Z,15.70
2023-02-15T10:31:53.137Z,14.95
2023-02-15T10:34:31.761Z,15.50
2023-02-15T10:37:10.655Z,14.77
2023-02-15T10:39:53.817Z,15.13
2023-02-15T10:42:24.293Z,14.23
2023-02-15T10:45:23.106Z,14.45
2023-02-15T10:48:08.674Z,14.70
2023-02-15T10:50:52.662Z,14.48
2023-02-15T10:53:33.796Z,15.00
2023-02-15T10:56:21.486Z,14.00
2023-02-15T10:59:09.489Z,14.20
2023-02-15T11:01:43.630Z,14.30
2023-02-15T11:04:20.499Z,13.73
2023-02-15T11:06:56.518Z,13.95
2023-02-15T11:09:26.730Z,13.27
2023-02-15T11:11:55.392Z,13.18
2023-02-15T11:14:34.882Z,12.82
2023-02-15T11:17:07.077Z,13.20
2023-02-15T11:19:36.965Z,13.68
2023-02-15T11:22:06.130Z,13.88
2023-02-15T11:24:41.738Z,13.02
2023-02-15T11:27:17.525Z,13.27
2023-02-15T11:29:52.974Z,13.20
2023-02-15T11:32:35.023Z,12.50
2023-02-15T11:35:11.118Z,12.57
2023-02-15T11:37:55.979Z,12.45
2023-02-15T11:40:35.493Z,12.95
2023-02-15T11:43:07.491Z,12.88
2023-02-15T11:45:35.537Z,12.55
2023-02-15T11:48:09.170Z,12.10
2023-02-15T11:50:36.107Z,12.63
2023-02-15T11:55:47.683Z,12.30
2023-02-15T11:58:17.287Z,11.70
2023-02-15T12:00:47.038Z,11.43
2023-02-15T12:05:54.965Z,12.43
2023-02-15T12:08:22.852Z,11.88
2023-02-15T12:11:01.990Z,11.15
2023-02-15T12:13:29.049Z,11.48
2023-02-15T12:15:58.298Z,11.10
2023-02-15T12:18:45.395Z,12.05
2023-02-15T12:21:30.728Z,11.27
2023-02-15T12:24:03.196Z,11.18
2023-02-15T12:26:32.557Z,12.05
2023-02-15T12:29:10.686Z,11.13
2023-02-15T12:31:40.896Z,10.88
2023-02-15T12:34:33.285Z,10.90
2023-02-15T12:37:16.381Z,11.23
2023-02-15T12:40:02.728Z,11.02
2023-02-15T12:42:45.573Z,11.02
2023-02-15T12:45:31.376Z,10.77
2023-02-15T12:48:18.087Z,10.85
2023-02-15T12:50:54.780Z,10.05
2023-02-15T12:53:33.372Z,11.15
2023-02-15T12:56:05.935Z,10.45
2023-02-15T12:58:42.650Z,10.32
2023-02-15T13:01:16.649Z,10.35
2023-02-15T13:04:04.089Z,10.52
2023-02-15T13:06:33.757Z,9.80
2023-02-15T13:11:48.036Z,9.93
2023-02-15T13:14:33.051Z,9.93
2023-02-15T13:17:02.375Z,9.68
2023-02-15T13:19:35.990Z,8.98
2023-02-15T13:22:21.676Z,9.10
2023-02-15T13:24:51.548Z,9.57
2023-02-15T13:27:21.577Z,9.10
2023-02-15T13:29:53.112Z,8.93
2023-02-15T13:35:16.115Z,9.32
2023-02-15T13:38:07.967Z,8.55
2023-02-15T13:40:56.909Z,7.93
2023-02-15T13:43:47.962Z,9.07
2023-02-15T13:46:26.984Z,8.45
2023-02-15T13:49:31.470Z,9.07
2023-02-15T13:52:20.249Z,9.15
2023-02-15T13:55:22.727Z,8.68
2023-02-15T13:58:14.470Z,8.55
2023-02-15T14:00:59.935Z,8.65
2023-02-15T14:04:00.505Z,8.07
2023-02-15T14:06:30.550Z,7.85
2023-02-15T14:09:26.642Z,8.30
2023-02-15T14:12:19.394Z,8.55
2023-02-15T14:14:57.313Z,8.30
2023-02-15T14:18:09.253Z,8.52
2023-02-15T14:20:45.237Z,8.27
2023-02-15T14:23:39.720Z,8.63
2023-02-15T14:26:32.932Z,8.02
2023-02-15T14:29:19.284Z,8.35
2023-02-15T14:31:50.440Z,8.70
2023-02-15T14:34:28.880Z,8.35
2023-02-15T14:36:56.771Z,8.05
2023-02-15T14:39:56.471Z,8.48
2023-02-15T14:45:48.227Z,8.05
2023-02-15T14:48:25.081Z,8.55
2023-02-15T14:50:52.016Z,8.45
2023-02-15T14:53:28.664Z,8.20
2023-02-15T14:56:10.341Z,8.43
2023-02-15T14:58:38.224Z,8.13
2023-02-15T15:01:06.840Z,7.75
2023-02-15T15:03:34.021Z,8.18
2023-02-15T15:08:39.648Z,8.00
2023-02-15T15:11:42.944Z,7.93
2023-02-15T15:17:03.708Z,8.02
2023-02-15T15:19:51.797Z,8.25
2023-02-15T15:22:24.644Z,8.23
2023-02-15T15:24:54.040Z,7.97
2023-02-15T15:27:42.748Z,8.20
2023-02-15T15:30:15.451Z,8.57
2023-02-15T15:32:49.677Z,8.13
2023-02-15T15:35:43.924Z,8.48
2023-02-15T15:38:12.995Z,8.73
2023-02-15T15:41:29.046Z,8.05
2023-02-15T15:44:09.688Z,8.27
2023-02-15T15:46:48.568Z,8.27
2023-02-15T15:49:28.235Z,8.27
2023-02-15T15:51:55.307Z,8.25
2023-02-15T15:54:24.401Z,8.82
2023-02-15T15:56:58.030Z,8.48
2023-02-15T15:59:30.995Z,8.52
2023-02-15T16:02:06.176Z,8.15
2023-02-15T16:04:35.940Z,7.60
2023-02-15T16:09:41.563Z,8.43
2023-02-15T16:12:16.094Z,8.45
2023-02-15T16:14:45.280Z,8.32
2023-02-15T16:17:20.380Z,7.97
2023-02-15T16:19:47.278Z,8.43
2023-02-15T16:22:21.153Z,8.05
2023-02-15T16:25:14.425Z,8.00
2023-02-15T16:27:45.380Z,8.57
2023-02-15T16:30:23.398Z,8.48
2023-02-15T16:32:53.983Z,8.60
2023-02-15T16:35:22.242Z,8.82
2023-02-15T16:37:49.199Z,8.70
2023-02-15T16:40:25.142Z,8.25
2023-02-15T16:42:53.413Z,8.73
2023-02-15T16:45:21.876Z,8.40
2023-02-15T16:47:51.923Z,8.32
2023-02-15T16:50:35.858Z,8.25
2023-02-15T16:53:03.739Z,7.93
2023-02-15T16:55:42.050Z,8.15
2023-02-15T16:58:15.041Z,8.60
2023-02-15T17:00:42.441Z,7.80
2023-02-15T17:03:15.357Z,7.95
2023-02-15T17:05:46.798Z,8.40
2023-02-15T17:08:17.631Z,8.85
2023-02-15T17:11:05.085Z,15.00
2023-02-15T17:13:32.463Z,24.85
2023-02-15T17:16:02.803Z,25.52
2023-02-15T17:18:59.392Z,27.85
2023-02-15T17:21:31.848Z,27.92
2023-02-15T17:24:05.044Z,27.23
2023-02-15T17:26:35.215Z,25.48
2023-02-15T17:29:33.987Z,23.63
2023-02-15T17:32:01.630Z,20.00
2023-02-15T17:35:06.048Z,19.17
2023-02-15T17:37:39.119Z,17.38
2023-02-15T17:40:22.804Z,17.23
2023-02-15T17:42:49.815Z,16.92
2023-02-15T17:45:17.042Z,16.15
2023-02-15T17:50:33.376Z,30.77
2023-02-15T17:53:01.980Z,35.15
2023-02-15T17:55:41.279Z,31.50
2023-02-15T17:58:11.271Z,29.15
2023-02-15T18:01:14.379Z,27.73
2023-02-15T18:04:04.376Z,27.00
2023-02-15T18:06:49.717Z,25.20
2023-02-15T18:09:39.312Z,25.33
2023-02-15T18:12:33.686Z,24.73
2023-02-15T18:15:03.923Z,23.50
2023-02-15T18:17:43.036Z,23.38
2023-02-15T18:20:19.991Z,22.95
2023-02-15T18:22:46.985Z,21.75
2023-02-15T18:25:15.535Z,21.70
2023-02-15T18:27:42.538Z,21.15
2023-02-15T18:30:14.874Z,20.33
2023-02-15T18:32:41.927Z,20.80
2023-02-15T18:35:21.243Z,19.17
2023-02-15T18:37:48.716Z,19.15
2023-02-15T18:40:17.566Z,17.40
2023-02-15T18:42:47.819Z,16.60
2023-02-15T18:45:20.173Z,16.45
2023-02-15T18:47:47.687Z,28.90
2023-02-15T18:50:17.222Z,25.63
2023-02-15T18:52:46.546Z,25.20
2023-02-15T18:55:19.689Z,22.50
2023-02-15T18:57:47.602Z,21.42
2023-02-15T19:00:21.951Z,21.92
2023-02-15T19:02:48.960Z,20.00
2023-02-15T19:05:17.897Z,18.80
2023-02-15T19:07:48.260Z,19.02
2023-02-15T19:10:20.569Z,18.45
2023-02-15T19:12:48.441Z,17.40
2023-02-15T19:15:23.925Z,16.88
2023-02-15T19:17:51.906Z,15.60
2023-02-15T19:20:24.855Z,16.58
2023-02-15T19:22:53.509Z,15.00
2023-02-15T19:25:23.870Z,15.25
2023-02-15T19:27:51.165Z,13.77
2023-02-15T19:30:20.363Z,14.90
2023-02-15T19:32:47.600Z,16.58
2023-02-15T19:35:20.143Z,23.83
2023-02-15T19:37:52.236Z,25.85
2023-02-15T19:40:24.002Z,23.10
2023-02-15T19:42:50.937Z,20.75
2023-02-15T19:45:20.161Z,21.33
2023-02-15T19:47:48.254Z,19.58
2023-02-15T19:50:20.194Z,18.50
2023-02-15T19:52:47.496Z,18.25
2023-02-15T19:55:28.328Z,17.83
2023-02-15T19:57:56.272Z,16.05
2023-02-15T20:00:25.620Z,15.80
2023-02-15T20:02:53.412Z,15.80
2023-02-15T20:05:21.542Z,15.52
2023-02-15T20:07:50.206Z,14.32
2023-02-15T20:10:31.281Z,14.50
2023-02-15T20:12:58.404Z,14.15
2023-02-15T20:15:33.439Z,13.63
2023-02-15T20:18:05.037Z,13.13
2023-02-15T20:20:42.204Z,13.35
2023-02-15T20:23:30.856Z,14.55
2023-02-15T20:26:00.777Z,12.90
2023-02-15T20:28:29.839Z,13.23
2023-02-15T20:30:57.209Z,12.50
2023-02-15T20:33:24.173Z,13.40
2023-02-15T20:35:51.283Z,13.18
2023-02-15T20:38:27.990Z,12.85
2023-02-15T20:43:42.898Z,11.98
2023-02-15T20:46:09.842Z,12.55
2023-02-15T20:48:36.766Z,12.38
2023-02-15T20:51:04.148Z,11.23
2023-02-15T20:53:31.304Z,11.38
2023-02-15T20:55:58.522Z,11.43
2023-02-15T20:58:30.187Z,11.98
2023-02-15T21:00:58.870Z,12.30
2023-02-15T21:03:30.698Z,11.80
2023-02-15T21:05:58.908Z,11.57
2023-02-15T21:08:26.477Z,12.10
2023-02-15T21:10:54.076Z,12.45
2023-02-15T21:13:27.034Z,11.35
2023-02-15T21:15:55.323Z,11.20
2023-02-15T21:18:25.406Z,11.38
2023-02-15T21:20:57.794Z,12.15
2023-02-15T21:23:29.926Z,24.92
2023-02-15T21:25:57.229Z,30.73
2023-02-15T21:28:26.592Z,26.45
2023-02-15T21:30:54.816Z,24.90
2023-02-15T21:33:21.779Z,22.88
2023-02-15T21:35:56.042Z,21.83
2023-02-15T21:38:25.541Z,20.35
2023-02-15T21:40:52.514Z,19.35
2023-02-15T21:43:42.161Z,17.65
2023-02-15T21:48:58.024Z,15.60
2023-02-15T21:51:43.641Z,15.77
2023-02-15T21:54:16.151Z,14.98
2023-02-15T21:56:43.240Z,15.30
2023-02-15T21:59:17.292Z,14.00
2023-02-15T22:01:51.379Z,20.15
2023-02-15T22:04:26.939Z,31.73
2023-02-15T22:06:53.961Z,28.15
2023-02-15T22:09:26.701Z,26.10
2023-02-15T22:11:54.550Z,23.75
2023-02-15T22:14:39.065Z,21.80
2023-02-15T22:17:15.977Z,20.58
2023-02-15T22:19:43.987Z,19.40
2023-02-15T22:22:11.210Z,17.90
2023-02-15T22:24:38.642Z,18.33
2023-02-15T22:27:06.649Z,16.48
2023-02-15T22:29:34.190Z,16.67
2023-02-15T22:32:01.189Z,16.15
2023-02-15T22:34:30.065Z,16.75
2023-02-15T22:36:57.448Z,16.73
2023-02-15T22:39:25.262Z,14.75
2023-02-15T22:41:53.133Z,14.55
2023-02-15T22:44:25.799Z,13.80
2023-02-15T22:46:52.940Z,15.02
2023-02-15T22:49:19.808Z,14.68
2023-02-15T22:51:50.601Z,13.73
2023-02-15T22:54:18.594Z,13.32
2023-02-15T22:56:52.238Z,13.77
2023-02-15T22:59:29.670Z,12.75
2023-02-15T23:01:57.107Z,12.85
2023-02-15T23:04:28.698Z,13.23
2023-02-15T23:06:58.188Z,13.10
2023-02-15T23:09:25.215Z,11.82
2023-02-15T23:11:52.369Z,12.65
2023-02-15T23:14:22.045Z,12.52
2023-02-15T23:19:16.156Z,12.70
2023-02-15T23:21:43.088Z,12.30
2023-02-15T23:24:19.802Z,12.82
2023-02-15T23:26:47.406Z,12.90
2023-02-15T23:29:18.457Z,12.55
2023-02-15T23:31:47.528Z,13.02
2023-02-15T23:34:29.426Z,12.55
2023-02-15T23:36:56.653Z,12.73
2023-02-15T23:39:44.310Z,12.05
2023-02-15T23:42:16.774Z,11.40
2023-02-15T23:44:45.286Z,12.30
2023-02-15T23:47:19.419Z,11.50
2023-02-15T23:49:46.383Z,11.82
2023-02-15T23:52:13.337Z,12.07
2023-02-15T23:54:40.331Z,11.35
2023-02-15T23:57:09.967Z,11.15
2023-02-15T23:59:37.577Z,11.85
